sensor_id;sensor_type;location;lat;lon;timestamp;P1;durP1;ratioP1;P2;durP2;ratioP2
81477;SDS011;70892;52.526;5.494;2023-06-26T00:00:14;10.10;;;8.52;;
81477;SDS011;70892;52.526;5.494;2023-06-26T00:02:40;10.13;;;8.93;;
81477;SDS011;70892;52.526;5.494;2023-06-26T00:05:05;11.37;;;9.20;;
81477;SDS011;70892;52.526;5.494;2023-06-26T00:07:31;9.90;;;8.88;;
81477;SDS011;70892;52.526;5.494;2023-06-26T00:10:00;12.35;;;9.35;;
81477;SDS011;70892;52.526;5.494;2023-06-26T00:12:27;10.65;;;9.57;;
81477;SDS011;70892;52.526;5.494;2023-06-26T00:14:53;11.85;;;9.85;;
81477;SDS011;70892;52.526;5.494;2023-06-26T00:17:18;12.75;;;9.32;;
81477;SDS011;70892;52.526;5.494;2023-06-26T00:19:44;11.02;;;8.80;;
81477;SDS011;70892;52.526;5.494;2023-06-26T00:22:09;11.85;;;9.95;;
81477;SDS011;70892;52.526;5.494;2023-06-26T00:24:36;11.57;;;9.15;;
81477;SDS011;70892;52.526;5.494;2023-06-26T00:27:02;11.48;;;10.27;;
81477;SDS011;70892;52.526;5.494;2023-06-26T00:29:27;11.38;;;9.15;;
81477;SDS011;70892;52.526;5.494;2023-06-26T00:31:53;13.18;;;9.95;;
81477;SDS011;70892;52.526;5.494;2023-06-26T00:34:18;12.52;;;9.85;;
81477;SDS011;70892;52.526;5.494;2023-06-26T00:36:44;11.70;;;10.02;;
81477;SDS011;70892;52.526;5.494;2023-06-26T00:39:10;11.98;;;10.10;;
81477;SDS011;70892;52.526;5.494;2023-06-26T00:41:38;12.88;;;9.50;;
81477;SDS011;70892;52.526;5.494;2023-06-26T00:44:04;11.65;;;10.10;;
81477;SDS011;70892;52.526;5.494;2023-06-26T00:46:30;11.88;;;10.68;;
81477;SDS011;70892;52.526;5.494;2023-06-26T00:48:56;13.13;;;11.02;;
81477;SDS011;70892;52.526;5.494;2023-06-26T00:51:24;13.65;;;10.65;;
81477;SDS011;70892;52.526;5.494;2023-06-26T00:53:51;12.95;;;10.48;;
81477;SDS011;70892;52.526;5.494;2023-06-26T00:56:17;12.23;;;9.95;;
81477;SDS011;70892;52.526;5.494;2023-06-26T00:58:44;11.88;;;9.70;;
81477;SDS011;70892;52.526;5.494;2023-06-26T01:01:10;13.02;;;9.85;;
81477;SDS011;70892;52.526;5.494;2023-06-26T01:03:41;11.63;;;9.40;;
81477;SDS011;70892;52.526;5.494;2023-06-26T01:06:07;11.32;;;9.52;;
81477;SDS011;70892;52.526;5.494;2023-06-26T01:08:36;10.88;;;8.45;;
81477;SDS011;70892;52.526;5.494;2023-06-26T01:11:03;12.98;;;9.48;;
81477;SDS011;70892;52.526;5.494;2023-06-26T01:13:29;11.75;;;9.80;;
81477;SDS011;70892;52.526;5.494;2023-06-26T01:15:55;12.07;;;9.20;;
81477;SDS011;70892;52.526;5.494;2023-06-26T01:18:22;10.60;;;8.75;;
81477;SDS011;70892;52.526;5.494;2023-06-26T01:20:48;10.23;;;8.32;;
81477;SDS011;70892;52.526;5.494;2023-06-26T01:26:09;9.68;;;7.53;;
81477;SDS011;70892;52.526;5.494;2023-06-26T01:28:43;9.15;;;7.57;;
81477;SDS011;70892;52.526;5.494;2023-06-26T01:31:10;8.70;;;7.32;;
81477;SDS011;70892;52.526;5.494;2023-06-26T01:33:36;9.25;;;7.32;;
81477;SDS011;70892;52.526;5.494;2023-06-26T01:36:02;7.93;;;6.60;;
81477;SDS011;70892;52.526;5.494;2023-06-26T01:38:28;7.93;;;5.55;;
81477;SDS011;70892;52.526;5.494;2023-06-26T01:40:54;8.25;;;5.25;;
81477;SDS011;70892;52.526;5.494;2023-06-26T01:46:21;8.25;;;5.32;;
81477;SDS011;70892;52.526;5.494;2023-06-26T01:48:56;7.00;;;5.13;;
81477;SDS011;70892;52.526;5.494;2023-06-26T01:51:32;7.35;;;5.53;;
81477;SDS011;70892;52.526;5.494;2023-06-26T01:54:03;8.57;;;5.63;;
81477;SDS011;70892;52.526;5.494;2023-06-26T01:56:34;9.13;;;5.13;;
81477;SDS011;70892;52.526;5.494;2023-06-26T01:59:03;9.63;;;5.35;;
81477;SDS011;70892;52.526;5.494;2023-06-26T02:01:30;8.70;;;5.22;;
81477;SDS011;70892;52.526;5.494;2023-06-26T02:03:58;7.18;;;5.22;;
81477;SDS011;70892;52.526;5.494;2023-06-26T02:06:24;7.32;;;5.07;;
81477;SDS011;70892;52.526;5.494;2023-06-26T02:08:49;8.00;;;5.15;;
81477;SDS011;70892;52.526;5.494;2023-06-26T02:11:15;9.98;;;5.80;;
81477;SDS011;70892;52.526;5.494;2023-06-26T02:13:40;9.65;;;5.95;;
81477;SDS011;70892;52.526;5.494;2023-06-26T02:16:05;9.52;;;5.72;;
81477;SDS011;70892;52.526;5.494;2023-06-26T02:18:31;8.32;;;5.30;;
81477;SDS011;70892;52.526;5.494;2023-06-26T02:20:56;10.02;;;5.40;;
81477;SDS011;70892;52.526;5.494;2023-06-26T02:23:22;11.27;;;5.40;;
81477;SDS011;70892;52.526;5.494;2023-06-26T02:25:47;8.40;;;5.13;;
81477;SDS011;70892;52.526;5.494;2023-06-26T02:28:13;8.23;;;5.30;;
81477;SDS011;70892;52.526;5.494;2023-06-26T02:30:38;8.52;;;5.35;;
81477;SDS011;70892;52.526;5.494;2023-06-26T02:33:03;10.32;;;6.22;;
81477;SDS011;70892;52.526;5.494;2023-06-26T02:35:29;9.52;;;5.78;;
81477;SDS011;70892;52.526;5.494;2023-06-26T02:37:54;9.77;;;5.30;;
81477;SDS011;70892;52.526;5.494;2023-06-26T02:40:20;10.32;;;5.78;;
81477;SDS011;70892;52.526;5.494;2023-06-26T02:42:45;11.25;;;5.90;;
81477;SDS011;70892;52.526;5.494;2023-06-26T02:45:10;10.13;;;5.78;;
81477;SDS011;70892;52.526;5.494;2023-06-26T02:47:36;13.25;;;6.03;;
81477;SDS011;70892;52.526;5.494;2023-06-26T02:50:04;10.95;;;5.93;;
81477;SDS011;70892;52.526;5.494;2023-06-26T02:52:31;13.68;;;6.35;;
81477;SDS011;70892;52.526;5.494;2023-06-26T02:54:56;16.13;;;6.20;;
81477;SDS011;70892;52.526;5.494;2023-06-26T02:57:22;13.20;;;6.10;;
81477;SDS011;70892;52.526;5.494;2023-06-26T02:59:47;10.65;;;6.25;;
81477;SDS011;70892;52.526;5.494;2023-06-26T03:02:12;18.45;;;6.65;;
81477;SDS011;70892;52.526;5.494;2023-06-26T03:04:38;11.82;;;5.88;;
81477;SDS011;70892;52.526;5.494;2023-06-26T03:07:03;11.75;;;6.35;;
81477;SDS011;70892;52.526;5.494;2023-06-26T03:09:29;10.68;;;5.88;;
81477;SDS011;70892;52.526;5.494;2023-06-26T03:11:54;12.52;;;6.00;;
81477;SDS011;70892;52.526;5.494;2023-06-26T03:14:20;14.05;;;6.50;;
81477;SDS011;70892;52.526;5.494;2023-06-26T03:16:46;14.73;;;6.05;;
81477;SDS011;70892;52.526;5.494;2023-06-26T03:19:11;12.95;;;6.32;;
81477;SDS011;70892;52.526;5.494;2023-06-26T03:21:37;16.30;;;5.72;;
81477;SDS011;70892;52.526;5.494;2023-06-26T03:24:02;13.80;;;6.03;;
81477;SDS011;70892;52.526;5.494;2023-06-26T03:26:28;15.25;;;6.10;;
81477;SDS011;70892;52.526;5.494;2023-06-26T03:28:54;12.25;;;5.20;;
81477;SDS011;70892;52.526;5.494;2023-06-26T03:31:19;13.93;;;6.35;;
81477;SDS011;70892;52.526;5.494;2023-06-26T03:33:45;17.08;;;6.32;;
81477;SDS011;70892;52.526;5.494;2023-06-26T03:36:11;15.43;;;5.95;;
81477;SDS011;70892;52.526;5.494;2023-06-26T03:38:36;12.65;;;5.63;;
81477;SDS011;70892;52.526;5.494;2023-06-26T03:41:02;13.68;;;6.20;;
81477;SDS011;70892;52.526;5.494;2023-06-26T03:43:27;14.55;;;6.38;;
81477;SDS011;70892;52.526;5.494;2023-06-26T03:45:53;11.25;;;5.78;;
81477;SDS011;70892;52.526;5.494;2023-06-26T03:48:19;13.90;;;5.97;;
81477;SDS011;70892;52.526;5.494;2023-06-26T03:50:44;9.52;;;5.10;;
81477;SDS011;70892;52.526;5.494;2023-06-26T03:53:10;10.65;;;5.63;;
81477;SDS011;70892;52.526;5.494;2023-06-26T03:55:37;12.65;;;5.50;;
81477;SDS011;70892;52.526;5.494;2023-06-26T03:58:03;14.55;;;5.35;;
81477;SDS011;70892;52.526;5.494;2023-06-26T04:00:29;9.38;;;4.93;;
81477;SDS011;70892;52.526;5.494;2023-06-26T04:02:54;10.70;;;5.32;;
81477;SDS011;70892;52.526;5.494;2023-06-26T04:05:20;8.75;;;5.25;;
81477;SDS011;70892;52.526;5.494;2023-06-26T04:07:45;8.68;;;5.18;;
81477;SDS011;70892;52.526;5.494;2023-06-26T04:10:14;10.55;;;5.32;;
81477;SDS011;70892;52.526;5.494;2023-06-26T04:12:39;8.25;;;4.90;;
81477;SDS011;70892;52.526;5.494;2023-06-26T04:15:05;9.75;;;4.82;;
81477;SDS011;70892;52.526;5.494;2023-06-26T04:17:31;10.48;;;4.80;;
81477;SDS011;70892;52.526;5.494;2023-06-26T04:19:56;12.70;;;4.90;;
81477;SDS011;70892;52.526;5.494;2023-06-26T04:22:21;10.32;;;5.05;;
81477;SDS011;70892;52.526;5.494;2023-06-26T04:24:47;12.73;;;4.80;;
81477;SDS011;70892;52.526;5.494;2023-06-26T04:27:12;7.63;;;4.18;;
81477;SDS011;70892;52.526;5.494;2023-06-26T04:29:41;8.07;;;3.60;;
81477;SDS011;70892;52.526;5.494;2023-06-26T04:32:06;11.27;;;3.80;;
81477;SDS011;70892;52.526;5.494;2023-06-26T04:34:32;8.75;;;3.90;;
81477;SDS011;70892;52.526;5.494;2023-06-26T04:36:59;6.05;;;3.00;;
81477;SDS011;70892;52.526;5.494;2023-06-26T04:39:24;6.00;;;3.20;;
81477;SDS011;70892;52.526;5.494;2023-06-26T04:41:50;4.88;;;2.90;;
81477;SDS011;70892;52.526;5.494;2023-06-26T04:44:15;6.75;;;2.85;;
81477;SDS011;70892;52.526;5.494;2023-06-26T04:46:41;6.50;;;2.60;;
81477;SDS011;70892;52.526;5.494;2023-06-26T04:49:09;6.38;;;2.92;;
81477;SDS011;70892;52.526;5.494;2023-06-26T04:51:35;6.65;;;2.67;;
81477;SDS011;70892;52.526;5.494;2023-06-26T04:54:07;6.60;;;2.95;;
81477;SDS011;70892;52.526;5.494;2023-06-26T04:56:33;8.40;;;2.67;;
81477;SDS011;70892;52.526;5.494;2023-06-26T04:58:59;4.32;;;2.53;;
81477;SDS011;70892;52.526;5.494;2023-06-26T05:01:24;5.03;;;2.63;;
81477;SDS011;70892;52.526;5.494;2023-06-26T05:03:50;3.53;;;2.33;;
81477;SDS011;70892;52.526;5.494;2023-06-26T05:06:15;7.07;;;2.53;;
81477;SDS011;70892;52.526;5.494;2023-06-26T05:08:40;4.85;;;2.28;;
81477;SDS011;70892;52.526;5.494;2023-06-26T05:11:06;5.80;;;2.40;;
81477;SDS011;70892;52.526;5.494;2023-06-26T05:13:31;6.47;;;2.80;;
81477;SDS011;70892;52.526;5.494;2023-06-26T05:15:57;5.35;;;2.70;;
81477;SDS011;70892;52.526;5.494;2023-06-26T05:18:22;3.28;;;1.92;;
81477;SDS011;70892;52.526;5.494;2023-06-26T05:20:48;4.20;;;1.92;;
81477;SDS011;70892;52.526;5.494;2023-06-26T05:23:13;6.50;;;2.20;;
81477;SDS011;70892;52.526;5.494;2023-06-26T05:25:41;6.50;;;2.20;;
81477;SDS011;70892;52.526;5.494;2023-06-26T05:28:07;3.47;;;1.88;;
81477;SDS011;70892;52.526;5.494;2023-06-26T05:30:35;6.35;;;2.45;;
81477;SDS011;70892;52.526;5.494;2023-06-26T05:33:01;4.45;;;2.17;;
81477;SDS011;70892;52.526;5.494;2023-06-26T05:35:28;5.70;;;2.05;;
81477;SDS011;70892;52.526;5.494;2023-06-26T05:37:58;5.07;;;2.08;;
81477;SDS011;70892;52.526;5.494;2023-06-26T05:40:24;4.80;;;2.00;;
81477;SDS011;70892;52.526;5.494;2023-06-26T05:42:50;6.45;;;2.10;;
81477;SDS011;70892;52.526;5.494;2023-06-26T05:45:15;3.22;;;1.92;;
81477;SDS011;70892;52.526;5.494;2023-06-26T05:47:41;5.57;;;2.38;;
81477;SDS011;70892;52.526;5.494;2023-06-26T05:50:08;4.40;;;2.20;;
81477;SDS011;70892;52.526;5.494;2023-06-26T05:52:34;5.30;;;2.60;;
81477;SDS011;70892;52.526;5.494;2023-06-26T05:55:00;4.18;;;2.03;;
81477;SDS011;70892;52.526;5.494;2023-06-26T05:57:27;3.97;;;2.20;;
81477;SDS011;70892;52.526;5.494;2023-06-26T05:59:53;4.40;;;1.90;;
81477;SDS011;70892;52.526;5.494;2023-06-26T06:02:19;4.38;;;2.20;;
81477;SDS011;70892;52.526;5.494;2023-06-26T06:04:45;4.47;;;2.38;;
81477;SDS011;70892;52.526;5.494;2023-06-26T06:07:11;3.80;;;2.08;;
81477;SDS011;70892;52.526;5.494;2023-06-26T06:09:36;4.55;;;2.13;;
81477;SDS011;70892;52.526;5.494;2023-06-26T06:12:02;5.55;;;2.30;;
81477;SDS011;70892;52.526;5.494;2023-06-26T06:14:32;4.60;;;2.30;;
81477;SDS011;70892;52.526;5.494;2023-06-26T06:16:58;3.95;;;1.90;;
81477;SDS011;70892;52.526;5.494;2023-06-26T06:19:23;5.20;;;2.22;;
81477;SDS011;70892;52.526;5.494;2023-06-26T06:21:54;5.13;;;1.92;;
81477;SDS011;70892;52.526;5.494;2023-06-26T06:24:19;4.63;;;2.22;;
81477;SDS011;70892;52.526;5.494;2023-06-26T06:26:45;6.18;;;1.98;;
81477;SDS011;70892;52.526;5.494;2023-06-26T06:29:11;3.30;;;2.10;;
81477;SDS011;70892;52.526;5.494;2023-06-26T06:31:36;6.57;;;2.55;;
81477;SDS011;70892;52.526;5.494;2023-06-26T06:34:02;4.13;;;1.80;;
81477;SDS011;70892;52.526;5.494;2023-06-26T06:36:27;4.03;;;2.15;;
81477;SDS011;70892;52.526;5.494;2023-06-26T06:38:52;4.63;;;2.20;;
81477;SDS011;70892;52.526;5.494;2023-06-26T06:41:19;7.97;;;2.00;;
81477;SDS011;70892;52.526;5.494;2023-06-26T06:43:45;3.83;;;2.15;;
81477;SDS011;70892;52.526;5.494;2023-06-26T06:46:10;4.53;;;1.98;;
81477;SDS011;70892;52.526;5.494;2023-06-26T06:48:36;4.95;;;2.25;;
81477;SDS011;70892;52.526;5.494;2023-06-26T06:51:01;3.65;;;2.35;;
81477;SDS011;70892;52.526;5.494;2023-06-26T06:53:27;5.65;;;2.40;;
81477;SDS011;70892;52.526;5.494;2023-06-26T06:55:53;4.22;;;2.30;;
81477;SDS011;70892;52.526;5.494;2023-06-26T06:58:18;5.95;;;2.40;;
81477;SDS011;70892;52.526;5.494;2023-06-26T07:00:47;6.85;;;2.38;;
81477;SDS011;70892;52.526;5.494;2023-06-26T07:03:13;4.90;;;2.33;;
81477;SDS011;70892;52.526;5.494;2023-06-26T07:05:40;5.57;;;2.35;;
81477;SDS011;70892;52.526;5.494;2023-06-26T07:08:07;6.18;;;2.58;;
81477;SDS011;70892;52.526;5.494;2023-06-26T07:10:32;4.25;;;2.10;;
81477;SDS011;70892;52.526;5.494;2023-06-26T07:12:58;5.20;;;2.60;;
81477;SDS011;70892;52.526;5.494;2023-06-26T07:15:23;5.45;;;2.40;;
81477;SDS011;70892;52.526;5.494;2023-06-26T07:17:48;5.13;;;2.17;;
81477;SDS011;70892;52.526;5.494;2023-06-26T07:20:14;4.72;;;2.30;;
81477;SDS011;70892;52.526;5.494;2023-06-26T07:22:42;5.13;;;2.10;;
81477;SDS011;70892;52.526;5.494;2023-06-26T07:25:09;4.95;;;2.47;;
81477;SDS011;70892;52.526;5.494;2023-06-26T07:27:36;6.18;;;2.90;;
81477;SDS011;70892;52.526;5.494;2023-06-26T07:30:02;6.38;;;2.97;;
81477;SDS011;70892;52.526;5.494;2023-06-26T07:32:27;6.43;;;2.50;;
81477;SDS011;70892;52.526;5.494;2023-06-26T07:34:53;6.97;;;3.03;;
81477;SDS011;70892;52.526;5.494;2023-06-26T07:37:18;5.70;;;2.85;;
81477;SDS011;70892;52.526;5.494;2023-06-26T07:39:43;5.85;;;2.88;;
81477;SDS011;70892;52.526;5.494;2023-06-26T07:42:09;4.95;;;2.55;;
81477;SDS011;70892;52.526;5.494;2023-06-26T07:44:34;4.03;;;2.58;;
81477;SDS011;70892;52.526;5.494;2023-06-26T07:47:00;5.82;;;2.60;;
81477;SDS011;70892;52.526;5.494;2023-06-26T07:49:25;7.88;;;3.33;;
81477;SDS011;70892;52.526;5.494;2023-06-26T07:51:51;4.90;;;2.42;;
81477;SDS011;70892;52.526;5.494;2023-06-26T07:54:16;5.78;;;2.97;;
81477;SDS011;70892;52.526;5.494;2023-06-26T07:56:52;7.15;;;3.45;;
81477;SDS011;70892;52.526;5.494;2023-06-26T07:59:19;5.07;;;2.70;;
81477;SDS011;70892;52.526;5.494;2023-06-26T08:01:46;6.43;;;2.88;;
81477;SDS011;70892;52.526;5.494;2023-06-26T08:04:11;7.05;;;3.13;;
81477;SDS011;70892;52.526;5.494;2023-06-26T08:06:37;5.60;;;2.75;;
81477;SDS011;70892;52.526;5.494;2023-06-26T08:09:05;7.43;;;3.50;;
81477;SDS011;70892;52.526;5.494;2023-06-26T08:11:32;7.88;;;3.20;;
81477;SDS011;70892;52.526;5.494;2023-06-26T08:13:58;6.60;;;3.00;;
81477;SDS011;70892;52.526;5.494;2023-06-26T08:16:23;7.45;;;3.15;;
81477;SDS011;70892;52.526;5.494;2023-06-26T08:18:49;6.80;;;2.92;;
81477;SDS011;70892;52.526;5.494;2023-06-26T08:21:14;6.00;;;3.13;;
81477;SDS011;70892;52.526;5.494;2023-06-26T08:23:39;11.65;;;2.85;;
81477;SDS011;70892;52.526;5.494;2023-06-26T08:26:05;7.32;;;3.50;;
81477;SDS011;70892;52.526;5.494;2023-06-26T08:28:30;6.72;;;3.25;;
81477;SDS011;70892;52.526;5.494;2023-06-26T08:30:56;6.50;;;2.72;;
81477;SDS011;70892;52.526;5.494;2023-06-26T08:33:21;7.68;;;3.30;;
81477;SDS011;70892;52.526;5.494;2023-06-26T08:35:46;6.75;;;3.53;;
81477;SDS011;70892;52.526;5.494;2023-06-26T08:38:12;6.95;;;3.30;;
81477;SDS011;70892;52.526;5.494;2023-06-26T08:40:37;8.07;;;3.45;;
81477;SDS011;70892;52.526;5.494;2023-06-26T08:43:03;7.70;;;3.05;;
81477;SDS011;70892;52.526;5.494;2023-06-26T08:45:29;8.10;;;3.22;;
81477;SDS011;70892;52.526;5.494;2023-06-26T08:47:55;10.90;;;3.28;;
81477;SDS011;70892;52.526;5.494;2023-06-26T08:50:25;6.00;;;3.00;;
81477;SDS011;70892;52.526;5.494;2023-06-26T08:55:34;7.22;;;3.22;;
81477;SDS011;70892;52.526;5.494;2023-06-26T08:58:03;6.03;;;2.97;;
81477;SDS011;70892;52.526;5.494;2023-06-26T09:00:29;5.63;;;2.90;;
81477;SDS011;70892;52.526;5.494;2023-06-26T09:02:55;7.72;;;2.83;;
81477;SDS011;70892;52.526;5.494;2023-06-26T09:05:21;6.85;;;2.80;;
81477;SDS011;70892;52.526;5.494;2023-06-26T09:07:47;8.70;;;2.92;;
81477;SDS011;70892;52.526;5.494;2023-06-26T09:10:12;5.88;;;3.00;;
81477;SDS011;70892;52.526;5.494;2023-06-26T09:12:37;8.18;;;2.70;;
81477;SDS011;70892;52.526;5.494;2023-06-26T09:15:04;6.00;;;2.85;;
81477;SDS011;70892;52.526;5.494;2023-06-26T09:17:33;7.95;;;2.40;;
81477;SDS011;70892;52.526;5.494;2023-06-26T09:20:03;6.38;;;2.53;;
81477;SDS011;70892;52.526;5.494;2023-06-26T09:22:29;5.15;;;2.40;;
81477;SDS011;70892;52.526;5.494;2023-06-26T09:24:58;5.80;;;2.40;;
81477;SDS011;70892;52.526;5.494;2023-06-26T09:27:23;7.30;;;2.45;;
81477;SDS011;70892;52.526;5.494;2023-06-26T09:29:49;5.55;;;2.38;;
81477;SDS011;70892;52.526;5.494;2023-06-26T09:32:15;8.02;;;2.42;;
81477;SDS011;70892;52.526;5.494;2023-06-26T09:34:41;9.55;;;2.88;;
81477;SDS011;70892;52.526;5.494;2023-06-26T09:37:11;6.93;;;2.85;;
81477;SDS011;70892;52.526;5.494;2023-06-26T09:39:37;7.25;;;2.70;;
81477;SDS011;70892;52.526;5.494;2023-06-26T09:42:02;5.20;;;2.20;;
81477;SDS011;70892;52.526;5.494;2023-06-26T09:44:31;7.47;;;2.47;;
81477;SDS011;70892;52.526;5.494;2023-06-26T09:46:57;6.57;;;3.03;;
81477;SDS011;70892;52.526;5.494;2023-06-26T09:49:23;6.20;;;2.67;;
81477;SDS011;70892;52.526;5.494;2023-06-26T09:51:48;5.88;;;2.80;;
81477;SDS011;70892;52.526;5.494;2023-06-26T09:54:16;4.90;;;2.25;;
81477;SDS011;70892;52.526;5.494;2023-06-26T09:56:42;5.22;;;2.58;;
81477;SDS011;70892;52.526;5.494;2023-06-26T09:59:08;7.03;;;2.50;;
81477;SDS011;70892;52.526;5.494;2023-06-26T10:01:40;6.30;;;2.35;;
81477;SDS011;70892;52.526;5.494;2023-06-26T10:04:06;8.95;;;2.90;;
81477;SDS011;70892;52.526;5.494;2023-06-26T10:06:33;6.05;;;2.05;;
81477;SDS011;70892;52.526;5.494;2023-06-26T10:09:01;5.25;;;2.13;;
81477;SDS011;70892;52.526;5.494;2023-06-26T10:11:37;5.97;;;2.08;;
81477;SDS011;70892;52.526;5.494;2023-06-26T10:14:07;5.40;;;1.88;;
81477;SDS011;70892;52.526;5.494;2023-06-26T10:16:34;5.25;;;1.85;;
81477;SDS011;70892;52.526;5.494;2023-06-26T10:19:04;6.00;;;1.52;;
81477;SDS011;70892;52.526;5.494;2023-06-26T10:21:32;3.83;;;1.67;;
81477;SDS011;70892;52.526;5.494;2023-06-26T10:23:59;2.60;;;1.45;;
81477;SDS011;70892;52.526;5.494;2023-06-26T10:26:27;5.72;;;1.55;;
81477;SDS011;70892;52.526;5.494;2023-06-26T10:28:54;4.03;;;1.73;;
81477;SDS011;70892;52.526;5.494;2023-06-26T10:31:21;2.90;;;1.35;;
81477;SDS011;70892;52.526;5.494;2023-06-26T10:33:51;7.22;;;1.60;;
81477;SDS011;70892;52.526;5.494;2023-06-26T10:36:18;4.05;;;1.50;;
81477;SDS011;70892;52.526;5.494;2023-06-26T10:38:48;4.97;;;1.60;;
81477;SDS011;70892;52.526;5.494;2023-06-26T10:41:22;3.08;;;1.40;;
81477;SDS011;70892;52.526;5.494;2023-06-26T10:43:49;4.53;;;1.20;;
81477;SDS011;70892;52.526;5.494;2023-06-26T10:46:15;6.65;;;1.90;;
81477;SDS011;70892;52.526;5.494;2023-06-26T10:49:01;5.57;;;1.70;;
81477;SDS011;70892;52.526;5.494;2023-06-26T10:51:27;2.88;;;1.20;;
81477;SDS011;70892;52.526;5.494;2023-06-26T10:54:00;3.47;;;1.75;;
81477;SDS011;70892;52.526;5.494;2023-06-26T10:56:45;3.33;;;1.45;;
81477;SDS011;70892;52.526;5.494;2023-06-26T10:59:13;4.57;;;1.40;;
81477;SDS011;70892;52.526;5.494;2023-06-26T11:01:41;3.83;;;1.65;;
81477;SDS011;70892;52.526;5.494;2023-06-26T11:04:07;6.00;;;1.92;;
81477;SDS011;70892;52.526;5.494;2023-06-26T11:06:34;5.25;;;1.60;;
81477;SDS011;70892;52.526;5.494;2023-06-26T11:09:06;2.72;;;1.45;;
81477;SDS011;70892;52.526;5.494;2023-06-26T11:14:22;3.33;;;1.55;;
81477;SDS011;70892;52.526;5.494;2023-06-26T11:16:49;5.13;;;1.58;;
81477;SDS011;70892;52.526;5.494;2023-06-26T11:19:15;4.38;;;1.40;;
81477;SDS011;70892;52.526;5.494;2023-06-26T11:21:43;6.20;;;1.80;;
81477;SDS011;70892;52.526;5.494;2023-06-26T11:24:09;4.00;;;1.42;;
81477;SDS011;70892;52.526;5.494;2023-06-26T11:26:38;6.28;;;1.40;;
81477;SDS011;70892;52.526;5.494;2023-06-26T11:29:05;6.50;;;1.42;;
81477;SDS011;70892;52.526;5.494;2023-06-26T11:31:31;5.72;;;1.25;;
81477;SDS011;70892;52.526;5.494;2023-06-26T11:34:15;5.80;;;1.40;;
81477;SDS011;70892;52.526;5.494;2023-06-26T11:36:41;5.85;;;1.73;;
81477;SDS011;70892;52.526;5.494;2023-06-26T11:39:09;3.58;;;1.30;;
81477;SDS011;70892;52.526;5.494;2023-06-26T11:41:36;4.00;;;1.45;;
81477;SDS011;70892;52.526;5.494;2023-06-26T11:44:03;4.55;;;1.70;;
81477;SDS011;70892;52.526;5.494;2023-06-26T11:46:30;6.07;;;1.52;;
81477;SDS011;70892;52.526;5.494;2023-06-26T11:48:55;3.17;;;1.40;;
81477;SDS011;70892;52.526;5.494;2023-06-26T11:51:21;7.35;;;1.75;;
81477;SDS011;70892;52.526;5.494;2023-06-26T11:53:47;3.83;;;1.48;;
81477;SDS011;70892;52.526;5.494;2023-06-26T11:56:14;4.43;;;1.73;;
81477;SDS011;70892;52.526;5.494;2023-06-26T11:59:00;4.50;;;1.50;;
81477;SDS011;70892;52.526;5.494;2023-06-26T12:04:00;3.38;;;1.05;;
81477;SDS011;70892;52.526;5.494;2023-06-26T12:06:28;5.75;;;1.33;;
81477;SDS011;70892;52.526;5.494;2023-06-26T12:08:56;5.05;;;1.33;;
81477;SDS011;70892;52.526;5.494;2023-06-26T12:11:24;4.13;;;1.95;;
81477;SDS011;70892;52.526;5.494;2023-06-26T12:13:51;4.22;;;1.80;;
81477;SDS011;70892;52.526;5.494;2023-06-26T12:16:16;5.47;;;1.98;;
81477;SDS011;70892;52.526;5.494;2023-06-26T12:18:42;8.20;;;1.85;;
81477;SDS011;70892;52.526;5.494;2023-06-26T12:21:08;5.95;;;1.70;;
81477;SDS011;70892;52.526;5.494;2023-06-26T12:23:38;5.35;;;1.75;;
81477;SDS011;70892;52.526;5.494;2023-06-26T12:26:17;4.95;;;1.58;;
81477;SDS011;70892;52.526;5.494;2023-06-26T12:28:46;4.32;;;1.60;;
81477;SDS011;70892;52.526;5.494;2023-06-26T12:31:15;3.97;;;1.20;;
81477;SDS011;70892;52.526;5.494;2023-06-26T12:33:44;4.95;;;1.30;;
81477;SDS011;70892;52.526;5.494;2023-06-26T12:36:11;7.35;;;1.48;;
81477;SDS011;70892;52.526;5.494;2023-06-26T12:38:37;3.50;;;1.20;;
81477;SDS011;70892;52.526;5.494;2023-06-26T12:41:03;4.22;;;1.40;;
81477;SDS011;70892;52.526;5.494;2023-06-26T12:43:28;4.70;;;1.40;;
81477;SDS011;70892;52.526;5.494;2023-06-26T12:45:57;4.85;;;1.42;;
81477;SDS011;70892;52.526;5.494;2023-06-26T12:48:44;5.18;;;1.58;;
81477;SDS011;70892;52.526;5.494;2023-06-26T12:51:16;6.03;;;1.50;;
81477;SDS011;70892;52.526;5.494;2023-06-26T12:53:42;3.03;;;1.30;;
81477;SDS011;70892;52.526;5.494;2023-06-26T12:56:08;5.65;;;1.35;;
81477;SDS011;70892;52.526;5.494;2023-06-26T12:58:35;4.25;;;1.38;;
81477;SDS011;70892;52.526;5.494;2023-06-26T13:01:06;4.13;;;1.50;;
81477;SDS011;70892;52.526;5.494;2023-06-26T13:03:38;4.95;;;1.60;;
81477;SDS011;70892;52.526;5.494;2023-06-26T13:06:04;5.28;;;1.75;;
81477;SDS011;70892;52.526;5.494;2023-06-26T13:08:30;3.60;;;1.50;;
81477;SDS011;70892;52.526;5.494;2023-06-26T13:10:55;3.53;;;1.60;;
81477;SDS011;70892;52.526;5.494;2023-06-26T13:13:20;6.88;;;1.63;;
81477;SDS011;70892;52.526;5.494;2023-06-26T13:15:47;3.42;;;1.70;;
81477;SDS011;70892;52.526;5.494;2023-06-26T13:18:12;5.05;;;1.40;;
81477;SDS011;70892;52.526;5.494;2023-06-26T13:20:38;5.90;;;1.52;;
81477;SDS011;70892;52.526;5.494;2023-06-26T13:23:03;2.75;;;1.23;;
81477;SDS011;70892;52.526;5.494;2023-06-26T13:25:29;3.50;;;1.33;;
81477;SDS011;70892;52.526;5.494;2023-06-26T13:27:54;5.95;;;1.42;;
81477;SDS011;70892;52.526;5.494;2023-06-26T13:30:20;4.32;;;1.42;;
81477;SDS011;70892;52.526;5.494;2023-06-26T13:32:46;3.33;;;1.30;;
81477;SDS011;70892;52.526;5.494;2023-06-26T13:35:12;4.53;;;1.60;;
81477;SDS011;70892;52.526;5.494;2023-06-26T13:37:38;3.42;;;1.63;;
81477;SDS011;70892;52.526;5.494;2023-06-26T13:40:05;2.88;;;1.20;;
81477;SDS011;70892;52.526;5.494;2023-06-26T13:42:32;3.55;;;1.42;;
81477;SDS011;70892;52.526;5.494;2023-06-26T13:44:57;4.97;;;1.55;;
81477;SDS011;70892;52.526;5.494;2023-06-26T13:47:23;3.30;;;1.52;;
81477;SDS011;70892;52.526;5.494;2023-06-26T13:49:48;5.60;;;1.40;;
81477;SDS011;70892;52.526;5.494;2023-06-26T13:52:14;4.10;;;1.20;;
81477;SDS011;70892;52.526;5.494;2023-06-26T13:54:39;4.00;;;1.17;;
81477;SDS011;70892;52.526;5.494;2023-06-26T13:57:06;4.18;;;1.25;;
81477;SDS011;70892;52.526;5.494;2023-06-26T13:59:32;6.90;;;1.50;;
81477;SDS011;70892;52.526;5.494;2023-06-26T14:01:58;3.75;;;1.27;;
81477;SDS011;70892;52.526;5.494;2023-06-26T14:04:24;4.43;;;1.80;;
81477;SDS011;70892;52.526;5.494;2023-06-26T14:06:49;4.22;;;1.30;;
81477;SDS011;70892;52.526;5.494;2023-06-26T14:09:15;3.35;;;1.63;;
81477;SDS011;70892;52.526;5.494;2023-06-26T14:11:40;5.40;;;1.60;;
81477;SDS011;70892;52.526;5.494;2023-06-26T14:14:06;5.10;;;1.20;;
81477;SDS011;70892;52.526;5.494;2023-06-26T14:16:32;3.95;;;1.52;;
81477;SDS011;70892;52.526;5.494;2023-06-26T14:18:58;3.97;;;1.48;;
81477;SDS011;70892;52.526;5.494;2023-06-26T14:21:23;4.18;;;1.48;;
81477;SDS011;70892;52.526;5.494;2023-06-26T14:23:49;6.35;;;1.75;;
81477;SDS011;70892;52.526;5.494;2023-06-26T14:26:14;6.88;;;1.75;;
81477;SDS011;70892;52.526;5.494;2023-06-26T14:28:40;4.40;;;1.90;;
81477;SDS011;70892;52.526;5.494;2023-06-26T14:31:05;4.75;;;1.40;;
81477;SDS011;70892;52.526;5.494;2023-06-26T14:33:31;4.00;;;1.55;;
81477;SDS011;70892;52.526;5.494;2023-06-26T14:35:57;3.97;;;1.50;;
81477;SDS011;70892;52.526;5.494;2023-06-26T14:38:22;3.42;;;1.50;;
81477;SDS011;70892;52.526;5.494;2023-06-26T14:40:48;2.35;;;1.17;;
81477;SDS011;70892;52.526;5.494;2023-06-26T14:43:13;4.47;;;1.33;;
81477;SDS011;70892;52.526;5.494;2023-06-26T14:45:38;4.05;;;1.58;;
81477;SDS011;70892;52.526;5.494;2023-06-26T14:48:04;5.10;;;1.45;;
81477;SDS011;70892;52.526;5.494;2023-06-26T14:50:29;5.97;;;1.50;;
81477;SDS011;70892;52.526;5.494;2023-06-26T14:52:55;2.55;;;1.60;;
81477;SDS011;70892;52.526;5.494;2023-06-26T14:55:20;5.75;;;1.30;;